createdAt,value
2023-01-31T00:00:08.493Z,99.79
2023-01-31T00:02:36.336Z,99.92
2023-01-31T00:05:04.029Z,100.00
2023-01-31T00:07:31.499Z,100.00
2023-01-31T00:09:58.944Z,100.00
2023-01-31T00:12:26.505Z,100.00
2023-01-31T00:14:54.045Z,99.95
2023-01-31T00:17:21.551Z,100.00
2023-01-31T00:19:49.094Z,100.00
2023-01-31T00:22:16.499Z,100.00
2023-01-31T00:24:44.197Z,100.00
2023-01-31T00:27:11.633Z,100.00
2023-01-31T00:29:39.258Z,100.00
2023-01-31T00:32:06.779Z,100.00
2023-01-31T00:34:34.731Z,100.00
2023-01-31T00:37:02.263Z,100.00
2023-01-31T00:39:32.669Z,100.00
2023-01-31T00:42:00.092Z,100.00
2023-01-31T00:44:27.597Z,100.00
2023-01-31T00:46:55.056Z,100.00
2023-01-31T00:49:22.622Z,100.00
2023-01-31T00:51:50.017Z,100.00
2023-01-31T00:54:17.483Z,100.00
2023-01-31T00:56:44.985Z,100.00
2023-01-31T00:59:12.551Z,100.00
2023-01-31T01:01:40.135Z,100.00
2023-01-31T01:04:07.898Z,100.00
2023-01-31T01:06:40.592Z,100.00
2023-01-31T01:09:08.085Z,100.00
2023-01-31T01:11:36.756Z,100.00
2023-01-31T01:14:04.468Z,100.00
2023-01-31T01:16:37.083Z,100.00
2023-01-31T01:19:07.949Z,100.00
2023-01-31T01:21:40.747Z,100.00
2023-01-31T01:24:15.559Z,100.00
2023-01-31T01:26:44.746Z,100.00
2023-01-31T01:29:12.775Z,100.00
2023-01-31T01:31:40.743Z,100.00
2023-01-31T01:34:13.723Z,100.00
2023-01-31T01:36:41.722Z,100.00
2023-01-31T01:39:12.189Z,100.00
2023-01-31T01:41:42.580Z,100.00
2023-01-31T01:44:54.818Z,100.00
2023-01-31T01:47:25.554Z,100.00
2023-01-31T01:50:02.518Z,100.00
2023-01-31T01:52:33.059Z,100.00
2023-01-31T01:55:12.571Z,100.00
2023-01-31T01:57:44.061Z,100.00
2023-01-31T02:00:22.361Z,100.00
2023-01-31T02:02:58.281Z,100.00
2023-01-31T02:05:35.276Z,100.00
2023-01-31T02:08:04.494Z,100.00
2023-01-31T02:10:38.836Z,100.00
2023-01-31T02:13:08.488Z,100.00
2023-01-31T02:15:36.144Z,100.00
2023-01-31T02:18:04.013Z,100.00
2023-01-31T02:21:11.835Z,100.00
2023-01-31T02:24:18.368Z,100.00
2023-01-31T02:27:23.683Z,100.00
2023-01-31T02:30:00.254Z,100.00
2023-01-31T02:33:00.158Z,100.00
2023-01-31T02:36:04.495Z,100.00
2023-01-31T02:38:40.767Z,100.00
2023-01-31T02:42:15.571Z,100.00
2023-01-31T02:45:08.062Z,100.00
2023-01-31T02:47:53.122Z,100.00
2023-01-31T02:50:26.780Z,100.00
2023-01-31T02:53:08.792Z,100.00
2023-01-31T02:56:18.135Z,100.00
2023-01-31T02:59:06.475Z,100.00
2023-01-31T03:01:41.486Z,100.00
2023-01-31T03:04:13.027Z,100.00
2023-01-31T03:06:54.386Z,100.00
2023-01-31T03:09:36.977Z,100.00
2023-01-31T03:12:42.977Z,100.00
2023-01-31T03:15:47.896Z,100.00
2023-01-31T03:18:28.680Z,100.00
2023-01-31T03:21:09.185Z,100.00
2023-01-31T03:23:41.191Z,100.00
2023-01-31T03:26:10.492Z,100.00
2023-01-31T03:28:43.265Z,100.00
2023-01-31T03:31:24.163Z,100.00
2023-01-31T03:34:06.593Z,100.00
2023-01-31T03:37:00.774Z,100.00
2023-01-31T03:40:19.367Z,100.00
2023-01-31T03:43:10.829Z,100.00
2023-01-31T03:45:53.095Z,100.00
2023-01-31T03:48:24.672Z,100.00
2023-01-31T03:51:06.375Z,100.00
2023-01-31T03:53:49.211Z,100.00
2023-01-31T03:56:24.949Z,100.00
2023-01-31T03:59:01.732Z,100.00
2023-01-31T04:01:37.185Z,100.00
2023-01-31T04:04:14.945Z,100.00
2023-01-31T04:06:43.537Z,100.00
2023-01-31T04:09:11.103Z,100.00
2023-01-31T04:11:41.463Z,100.00
2023-01-31T04:14:10.425Z,100.00
2023-01-31T04:16:37.819Z,100.00
2023-01-31T04:19:05.856Z,100.00
2023-01-31T04:21:33.358Z,100.00
2023-01-31T04:24:01.118Z,100.00
2023-01-31T04:26:28.675Z,100.00
2023-01-31T04:28:56.123Z,100.00
2023-01-31T04:31:23.613Z,100.00
2023-01-31T04:33:51.166Z,100.00
2023-01-31T04:36:18.648Z,100.00
2023-01-31T04:38:46.143Z,100.00
2023-01-31T04:41:13.542Z,100.00
2023-01-31T04:43:40.968Z,100.00
2023-01-31T04:46:09.163Z,100.00
2023-01-31T04:48:37.248Z,100.00
2023-01-31T04:51:04.857Z,100.00
2023-01-31T04:53:32.792Z,100.00
2023-01-31T04:56:00.363Z,100.00
2023-01-31T04:58:28.408Z,100.00
2023-01-31T05:00:56.137Z,100.00
2023-01-31T05:03:23.785Z,100.00
2023-01-31T05:05:51.657Z,100.00
2023-01-31T05:08:19.128Z,100.00
2023-01-31T05:10:46.567Z,100.00
2023-01-31T05:13:14.670Z,100.00
2023-01-31T05:15:42.134Z,100.00
2023-01-31T05:18:09.628Z,100.00
2023-01-31T05:20:40.846Z,100.00
2023-01-31T05:23:08.722Z,100.00
2023-01-31T05:25:37.699Z,100.00
2023-01-31T05:28:05.889Z,100.00
2023-01-31T05:30:33.757Z,100.00
2023-01-31T05:33:01.445Z,100.00
2023-01-31T05:35:28.951Z,100.00
2023-01-31T05:37:56.621Z,100.00
2023-01-31T05:40:24.950Z,100.00
2023-01-31T05:42:59.863Z,100.00
2023-01-31T05:45:28.973Z,100.00
2023-01-31T05:47:56.764Z,100.00
2023-01-31T05:50:24.733Z,100.00
2023-01-31T05:53:00.945Z,100.00
2023-01-31T05:55:29.125Z,100.00
2023-01-31T05:57:57.077Z,100.00
2023-01-31T06:00:24.727Z,100.00
2023-01-31T06:02:52.183Z,100.00
2023-01-31T06:05:20.073Z,100.00
2023-01-31T06:07:47.770Z,100.00
2023-01-31T06:10:15.504Z,100.00
2023-01-31T06:12:42.928Z,100.00
2023-01-31T06:15:11.040Z,100.00
2023-01-31T06:17:38.496Z,100.00
2023-01-31T06:20:06.502Z,100.00
2023-01-31T06:22:34.482Z,100.00
2023-01-31T06:25:01.887Z,100.00
2023-01-31T06:27:33.552Z,100.00
2023-01-31T06:30:01.685Z,100.00
2023-01-31T06:32:29.044Z,100.00
2023-01-31T06:34:56.467Z,100.00
2023-01-31T06:37:23.880Z,100.00
2023-01-31T06:39:51.271Z,100.00
2023-01-31T06:42:18.931Z,100.00
2023-01-31T06:44:46.387Z,100.00
2023-01-31T06:47:14.698Z,100.00
2023-01-31T06:49:42.204Z,100.00
2023-01-31T06:52:09.611Z,100.00
2023-01-31T06:54:37.195Z,100.00
2023-01-31T06:57:04.789Z,100.00
2023-01-31T06:59:32.712Z,100.00
2023-01-31T07:02:00.625Z,100.00
2023-01-31T07:04:28.074Z,100.00
2023-01-31T07:06:55.573Z,100.00
2023-01-31T07:09:23.513Z,100.00
2023-01-31T07:11:50.959Z,100.00
2023-01-31T07:14:18.398Z,100.00
2023-01-31T07:16:45.772Z,100.00
2023-01-31T07:19:13.157Z,100.00
2023-01-31T07:21:40.665Z,100.00
2023-01-31T07:24:08.531Z,100.00
2023-01-31T07:26:36.085Z,100.00
2023-01-31T07:29:03.547Z,100.00
2023-01-31T07:31:31.662Z,100.00
2023-01-31T07:34:00.187Z,100.00
2023-01-31T07:36:27.805Z,100.00
2023-01-31T07:38:57.770Z,100.00
2023-01-31T07:41:26.125Z,100.00
2023-01-31T07:43:53.946Z,100.00
2023-01-31T07:46:21.577Z,100.00
2023-01-31T07:48:49.760Z,100.00
2023-01-31T07:51:17.332Z,100.00
2023-01-31T07:53:44.839Z,100.00
2023-01-31T07:56:19.311Z,100.00
2023-01-31T07:58:49.476Z,100.00
2023-01-31T08:01:48.528Z,100.00
2023-01-31T08:04:22.083Z,100.00
2023-01-31T08:06:55.897Z,100.00
2023-01-31T08:09:25.086Z,100.00
2023-01-31T08:11:53.051Z,100.00
2023-01-31T08:14:25.672Z,100.00
2023-01-31T08:16:56.888Z,100.00
2023-01-31T08:19:24.479Z,100.00
2023-01-31T08:21:52.039Z,100.00
2023-01-31T08:24:19.871Z,100.00
2023-01-31T08:26:47.477Z,100.00
2023-01-31T08:29:14.916Z,100.00
2023-01-31T08:31:42.515Z,100.00
2023-01-31T08:34:10.498Z,100.00
2023-01-31T08:36:37.979Z,100.00
2023-01-31T08:39:05.951Z,100.00
2023-01-31T08:41:34.896Z,100.00
2023-01-31T08:44:04.853Z,100.00
2023-01-31T08:46:37.476Z,100.00
2023-01-31T08:49:07.150Z,100.00
2023-01-31T08:51:35.029Z,100.00
2023-01-31T08:54:02.752Z,100.00
2023-01-31T08:56:30.335Z,100.00
2023-01-31T08:58:58.280Z,100.00
2023-01-31T09:01:26.070Z,100.00
2023-01-31T09:03:58.092Z,100.00
2023-01-31T09:06:27.541Z,100.00
2023-01-31T09:08:58.005Z,100.00
2023-01-31T09:11:30.144Z,100.00
2023-01-31T09:13:58.495Z,100.00
2023-01-31T09:16:26.165Z,100.00
2023-01-31T09:18:54.811Z,100.00
2023-01-31T09:21:24.283Z,100.00
2023-01-31T09:24:03.875Z,100.00
2023-01-31T09:26:32.404Z,100.00
2023-01-31T09:29:01.528Z,100.00
2023-01-31T09:31:30.151Z,100.00
2023-01-31T09:33:57.667Z,100.00
2023-01-31T09:36:25.290Z,100.00
2023-01-31T09:38:57.474Z,100.00
2023-01-31T09:41:42.188Z,100.00
2023-01-31T09:44:33.227Z,100.00
2023-01-31T09:47:33.961Z,100.00
2023-01-31T09:50:11.868Z,100.00
2023-01-31T09:52:39.550Z,100.00
2023-01-31T09:55:30.758Z,99.99
2023-01-31T09:58:24.431Z,100.00
2023-01-31T10:01:25.172Z,100.00
2023-01-31T10:04:17.535Z,100.00
2023-01-31T10:07:06.912Z,99.93
2023-01-31T10:09:44.160Z,99.89
2023-01-31T10:12:24.828Z,99.72
2023-01-31T10:15:03.328Z,99.84
2023-01-31T10:17:44.016Z,99.49
2023-01-31T10:20:41.098Z,99.65
2023-01-31T10:23:16.737Z,99.66
2023-01-31T10:25:58.202Z,99.80
2023-01-31T10:29:10.530Z,99.46
2023-01-31T10:32:28.892Z,99.86
2023-01-31T10:35:03.418Z,100.00
2023-01-31T10:37:46.516Z,100.00
2023-01-31T10:40:20.915Z,99.81
2023-01-31T10:42:55.029Z,99.91
2023-01-31T10:45:34.081Z,99.91
2023-01-31T10:48:07.438Z,100.00
2023-01-31T10:51:08.679Z,100.00
2023-01-31T10:54:26.655Z,100.00
2023-01-31T10:56:54.199Z,100.00
2023-01-31T10:59:33.206Z,100.00
2023-01-31T11:02:05.044Z,100.00
2023-01-31T11:04:42.074Z,100.00
2023-01-31T11:07:10.741Z,100.00
2023-01-31T11:09:45.138Z,100.00
2023-01-31T11:12:12.614Z,100.00
2023-01-31T11:14:40.064Z,100.00
2023-01-31T11:17:24.761Z,100.00
2023-01-31T11:19:55.939Z,99.94
2023-01-31T11:22:33.724Z,99.94
2023-01-31T11:25:04.475Z,100.00
2023-01-31T11:27:40.622Z,99.79
2023-01-31T11:30:22.643Z,100.00
2023-01-31T11:32:50.666Z,99.88
2023-01-31T11:35:17.992Z,99.68
2023-01-31T11:38:10.262Z,100.00
2023-01-31T11:40:40.849Z,100.00
2023-01-31T11:43:14.844Z,100.00
2023-01-31T11:45:54.073Z,100.00
2023-01-31T11:48:44.042Z,100.00
2023-01-31T11:51:30.590Z,100.00
2023-01-31T11:53:58.301Z,100.00
2023-01-31T11:56:31.367Z,100.00
2023-01-31T11:59:09.749Z,100.00
2023-01-31T12:01:50.954Z,100.00
2023-01-31T12:04:26.381Z,100.00
2023-01-31T12:07:22.431Z,100.00
2023-01-31T12:09:49.936Z,100.00
2023-01-31T12:12:34.995Z,100.00
2023-01-31T12:15:14.969Z,100.00
2023-01-31T12:17:49.475Z,100.00
2023-01-31T12:20:28.419Z,100.00
2023-01-31T12:23:21.775Z,100.00
2023-01-31T12:26:09.413Z,100.00
2023-01-31T12:29:13.200Z,100.00
2023-01-31T12:31:55.781Z,100.00
2023-01-31T12:35:01.729Z,100.00
2023-01-31T12:37:50.023Z,100.00
2023-01-31T12:40:40.118Z,100.00
2023-01-31T12:44:05.504Z,100.00
2023-01-31T12:47:10.505Z,100.00
2023-01-31T12:49:43.476Z,100.00
2023-01-31T12:52:37.591Z,100.00
2023-01-31T12:55:30.986Z,100.00
2023-01-31T12:58:04.479Z,100.00
2023-01-31T13:01:17.766Z,100.00
2023-01-31T13:04:25.308Z,100.00
2023-01-31T13:07:04.250Z,100.00
2023-01-31T13:09:35.944Z,100.00
2023-01-31T13:12:09.446Z,100.00
2023-01-31T13:14:44.978Z,100.00
2023-01-31T13:17:18.441Z,100.00
2023-01-31T13:20:03.345Z,100.00
2023-01-31T13:22:46.341Z,100.00
2023-01-31T13:25:28.773Z,100.00
2023-01-31T13:28:14.092Z,100.00
2023-01-31T13:30:58.775Z,100.00
2023-01-31T13:33:34.510Z,100.00
2023-01-31T13:36:19.000Z,100.00
2023-01-31T13:38:47.102Z,100.00
2023-01-31T13:41:33.382Z,100.00
2023-01-31T13:44:02.496Z,100.00
2023-01-31T13:46:42.242Z,100.00
2023-01-31T13:49:24.859Z,100.00
2023-01-31T13:52:09.326Z,100.00
2023-01-31T13:54:49.007Z,100.00
2023-01-31T13:57:25.562Z,100.00
2023-01-31T14:00:00.770Z,100.00
2023-01-31T14:02:28.314Z,100.00
2023-01-31T14:05:45.703Z,100.00
2023-01-31T14:08:32.091Z,100.00
2023-01-31T14:11:25.327Z,100.00
2023-01-31T14:14:29.844Z,100.00
2023-01-31T14:16:57.526Z,100.00
2023-01-31T14:19:24.879Z,100.00
2023-01-31T14:22:03.565Z,100.00
2023-01-31T14:25:00.155Z,100.00
2023-01-31T14:27:43.351Z,100.00
2023-01-31T14:30:26.062Z,100.00
2023-01-31T14:33:16.857Z,100.00
2023-01-31T14:36:17.963Z,100.00
2023-01-31T14:39:07.204Z,100.00
2023-01-31T14:41:59.344Z,100.00
2023-01-31T14:45:03.614Z,100.00
2023-01-31T14:47:51.143Z,100.00
2023-01-31T14:50:59.948Z,100.00
2023-01-31T14:53:46.167Z,100.00
2023-01-31T14:56:37.215Z,100.00
2023-01-31T14:59:04.891Z,100.00
2023-01-31T15:01:38.272Z,100.00
2023-01-31T15:04:06.556Z,100.00
2023-01-31T15:06:44.091Z,100.00
2023-01-31T15:09:36.297Z,100.00
2023-01-31T15:12:07.912Z,100.00
2023-01-31T15:14:44.862Z,100.00
2023-01-31T15:17:40.282Z,100.00
2023-01-31T15:20:22.108Z,100.00
2023-01-31T15:22:54.149Z,100.00
2023-01-31T15:25:46.489Z,100.00
2023-01-31T15:28:19.920Z,100.00
2023-01-31T15:30:49.116Z,100.00
2023-01-31T15:33:31.249Z,100.00
2023-01-31T15:36:05.410Z,100.00
2023-01-31T15:38:51.844Z,100.00
2023-01-31T15:41:44.369Z,100.00
2023-01-31T15:44:24.840Z,100.00
2023-01-31T15:46:55.694Z,100.00
2023-01-31T15:49:44.209Z,100.00
2023-01-31T15:52:22.873Z,100.00
2023-01-31T15:55:02.561Z,100.00
2023-01-31T15:57:47.581Z,100.00
2023-01-31T16:00:37.350Z,100.00
2023-01-31T16:03:08.377Z,100.00
2023-01-31T16:05:39.394Z,100.00
2023-01-31T16:08:26.693Z,100.00
2023-01-31T16:10:55.545Z,100.00
2023-01-31T16:13:25.991Z,100.00
2023-01-31T16:15:54.597Z,100.00
2023-01-31T16:18:22.647Z,100.00
2023-01-31T16:20:54.305Z,100.00
2023-01-31T16:23:32.083Z,100.00
2023-01-31T16:26:25.126Z,100.00
2023-01-31T16:28:59.853Z,100.00
2023-01-31T16:31:44.285Z,100.00
2023-01-31T16:34:30.381Z,100.00
2023-01-31T16:37:04.988Z,100.00
2023-01-31T16:39:50.739Z,100.00
2023-01-31T16:42:18.566Z,100.00
2023-01-31T16:44:46.828Z,100.00
2023-01-31T16:47:42.463Z,100.00
2023-01-31T16:50:42.251Z,100.00
2023-01-31T16:53:25.805Z,100.00
2023-01-31T16:56:19.010Z,100.00
2023-01-31T16:58:59.755Z,100.00
2023-01-31T17:01:34.136Z,100.00
2023-01-31T17:04:03.374Z,100.00
2023-01-31T17:06:31.746Z,100.00
2023-01-31T17:08:59.319Z,100.00
2023-01-31T17:11:41.671Z,100.00
2023-01-31T17:14:11.418Z,100.00
2023-01-31T17:16:39.120Z,100.00
2023-01-31T17:19:06.562Z,100.00
2023-01-31T17:21:41.755Z,100.00
2023-01-31T17:24:22.581Z,100.00
2023-01-31T17:26:53.365Z,100.00
2023-01-31T17:29:22.169Z,100.00
2023-01-31T17:31:49.660Z,100.00
2023-01-31T17:34:19.048Z,100.00
2023-01-31T17:36:46.543Z,100.00
2023-01-31T17:39:14.875Z,100.00
2023-01-31T17:41:42.338Z,100.00
2023-01-31T17:44:14.328Z,100.00
2023-01-31T17:46:43.256Z,100.00
2023-01-31T17:49:11.395Z,100.00
2023-01-31T17:51:39.214Z,100.00
2023-01-31T17:54:06.879Z,100.00
2023-01-31T17:56:34.678Z,100.00
2023-01-31T17:59:02.144Z,100.00
2023-01-31T18:01:30.657Z,100.00
2023-01-31T18:04:01.011Z,100.00
2023-01-31T18:06:28.537Z,100.00
2023-01-31T18:08:55.990Z,100.00
2023-01-31T18:11:23.416Z,100.00
2023-01-31T18:13:50.877Z,100.00
2023-01-31T18:16:21.666Z,100.00
2023-01-31T18:18:50.169Z,100.00
2023-01-31T18:21:21.880Z,100.00
2023-01-31T18:23:55.579Z,100.00
2023-01-31T18:26:24.819Z,100.00
2023-01-31T18:28:54.312Z,100.00
2023-01-31T18:31:22.013Z,100.00
2023-01-31T18:33:49.755Z,100.00
2023-01-31T18:36:20.197Z,100.00
2023-01-31T18:38:50.009Z,100.00
2023-01-31T18:41:21.838Z,100.00
2023-01-31T18:43:49.888Z,100.00
2023-01-31T18:46:17.625Z,100.00
2023-01-31T18:48:45.400Z,100.00
2023-01-31T18:51:15.415Z,100.00
2023-01-31T18:53:46.007Z,100.00
2023-01-31T18:56:17.345Z,100.00
2023-01-31T18:58:46.447Z,100.00
2023-01-31T19:01:20.980Z,100.00
2023-01-31T19:03:52.853Z,100.00
2023-01-31T19:06:27.138Z,100.00
2023-01-31T19:08:58.143Z,100.00
2023-01-31T19:11:29.916Z,100.00
2023-01-31T19:13:58.056Z,100.00
2023-01-31T19:16:29.846Z,100.00
2023-01-31T19:18:57.807Z,100.00
2023-01-31T19:21:30.265Z,100.00
2023-01-31T19:24:02.209Z,100.00
2023-01-31T19:26:32.306Z,100.00
2023-01-31T19:29:01.213Z,100.00
2023-01-31T19:31:31.333Z,100.00
2023-01-31T19:34:03.051Z,100.00
2023-01-31T19:36:33.200Z,100.00
2023-01-31T19:39:04.497Z,100.00
2023-01-31T19:41:33.289Z,100.00
2023-01-31T19:44:02.341Z,100.00
2023-01-31T19:46:34.544Z,100.00
2023-01-31T19:49:03.249Z,100.00
2023-01-31T19:51:31.827Z,100.00
2023-01-31T19:54:02.752Z,100.00
2023-01-31T19:56:32.242Z,100.00
2023-01-31T19:59:00.316Z,100.00
2023-01-31T20:01:27.744Z,100.00
2023-01-31T20:03:55.430Z,100.00
2023-01-31T20:06:27.087Z,100.00
2023-01-31T20:08:57.400Z,100.00
2023-01-31T20:11:27.717Z,100.00
2023-01-31T20:13:57.299Z,100.00
2023-01-31T20:16:24.977Z,100.00
2023-01-31T20:18:54.810Z,100.00
2023-01-31T20:21:23.127Z,100.00
2023-01-31T20:23:50.694Z,100.00
2023-01-31T20:26:20.830Z,100.00
2023-01-31T20:28:48.453Z,100.00
2023-01-31T20:31:17.194Z,100.00
2023-01-31T20:33:44.776Z,100.00
2023-01-31T20:36:13.270Z,100.00
2023-01-31T20:38:41.256Z,100.00
2023-01-31T20:41:09.257Z,100.00
2023-01-31T20:43:38.471Z,100.00
2023-01-31T20:46:10.694Z,100.00
2023-01-31T20:48:39.148Z,100.00
2023-01-31T20:51:07.368Z,100.00
2023-01-31T20:53:34.946Z,100.00
2023-01-31T20:56:11.793Z,100.00
2023-01-31T20:58:43.048Z,100.00
2023-01-31T21:01:12.316Z,100.00
2023-01-31T21:03:39.978Z,100.00
2023-01-31T21:06:08.241Z,100.00
2023-01-31T21:08:36.721Z,100.00
2023-01-31T21:11:09.879Z,100.00
2023-01-31T21:13:38.750Z,100.00
2023-01-31T21:16:08.588Z,100.00
2023-01-31T21:18:39.795Z,100.00
2023-01-31T21:21:12.058Z,100.00
2023-01-31T21:23:41.263Z,100.00
2023-01-31T21:26:11.589Z,100.00
2023-01-31T21:28:43.667Z,100.00
2023-01-31T21:31:19.125Z,100.00
2023-01-31T21:33:50.397Z,100.00
2023-01-31T21:36:24.399Z,100.00
2023-01-31T21:38:52.991Z,100.00
2023-01-31T21:41:39.214Z,100.00
2023-01-31T21:44:07.177Z,100.00
2023-01-31T21:46:35.309Z,100.00
2023-01-31T21:49:03.770Z,100.00
2023-01-31T21:51:31.375Z,100.00
2023-01-31T21:53:58.861Z,100.00
2023-01-31T21:56:28.283Z,100.00
2023-01-31T21:58:57.256Z,100.00
2023-01-31T22:01:29.983Z,100.00
2023-01-31T22:03:58.672Z,100.00
2023-01-31T22:06:37.268Z,100.00
2023-01-31T22:09:07.939Z,100.00
2023-01-31T22:11:35.946Z,100.00
2023-01-31T22:14:10.013Z,100.00
2023-01-31T22:16:38.963Z,100.00
2023-01-31T22:19:07.551Z,100.00
2023-01-31T22:21:37.277Z,100.00
2023-01-31T22:24:08.081Z,100.00
2023-01-31T22:26:40.736Z,100.00
2023-01-31T22:29:13.039Z,100.00
2023-01-31T22:31:40.731Z,100.00
2023-01-31T22:34:15.579Z,100.00
2023-01-31T22:36:43.201Z,100.00
2023-01-31T22:39:13.304Z,100.00
2023-01-31T22:41:40.841Z,100.00
2023-01-31T22:44:08.354Z,100.00
2023-01-31T22:46:36.071Z,100.00
2023-01-31T22:49:03.547Z,100.00
2023-01-31T22:51:31.043Z,100.00
2023-01-31T22:53:58.778Z,100.00
2023-01-31T22:56:30.543Z,100.00
2023-01-31T22:59:03.422Z,100.00
2023-01-31T23:01:35.067Z,100.00
2023-01-31T23:04:05.456Z,100.00
2023-01-31T23:06:34.431Z,100.00
2023-01-31T23:09:01.947Z,100.00
2023-01-31T23:11:29.450Z,100.00
2023-01-31T23:13:57.520Z,100.00
2023-01-31T23:16:46.881Z,100.00
2023-01-31T23:19:16.062Z,100.00
2023-01-31T23:21:44.643Z,100.00
2023-01-31T23:24:14.580Z,100.00
2023-01-31T23:26:43.469Z,100.00
2023-01-31T23:29:11.531Z,100.00
2023-01-31T23:31:39.536Z,100.00
2023-01-31T23:34:07.589Z,100.00
2023-01-31T23:36:35.352Z,100.00
2023-01-31T23:39:03.577Z,100.00
2023-01-31T23:41:31.112Z,100.00
2023-01-31T23:43:58.715Z,100.00
2023-01-31T23:46:26.311Z,100.00
2023-01-31T23:48:54.088Z,100.00
2023-01-31T23:51:21.567Z,100.00
2023-01-31T23:53:49.024Z,100.00
2023-01-31T23:56:16.463Z,100.00
2023-01-31T23:58:43.922Z,100.00
